Bombay Beach, California
Current Conditions -  °F | °C
As of 5:53 AM on Friday 31 Oct 2014 (Local Time) from KIPL Reporting Station
Clear Clear  
Wind Chill: 61°   Ceiling: Unl
Heat Index: 61°   Visibility: 10mi
Dew Point: 40°   Wind: 3mph
Humidity: 46%   Direction: 230°SW
Pressure: 29.83"   Gusts: NA
Location:  33.3324°N, 115.621°W
Report Text: KIPL 311253Z AUTO 23003KT 10SM CLR 16/04 A2983 RMK AO2 SLP101 T01610044
Loading
Personal Weather Stations






























Interactive Weather Map
Tropical Storm Tracking
New forecast layout! Learn more

10-Day Weather Forecast

Advertisements
Track Severe Weather on mobile